createdAt,value
2019-02-27T00:00:04.500Z,2.00
2019-02-27T00:02:53.775Z,2.00
2019-02-27T00:05:47.280Z,2.00
2019-02-27T00:08:39.052Z,1.90
2019-02-27T00:11:31.330Z,1.90
2019-02-27T00:14:19.340Z,2.10
2019-02-27T00:16:55.185Z,2.20
2019-02-27T00:19:44.369Z,2.10
2019-02-27T00:22:37.629Z,2.00
2019-02-27T00:25:28.750Z,2.00
2019-02-27T00:28:08.493Z,1.80
2019-02-27T00:30:50.083Z,1.70
2019-02-27T00:33:24.923Z,1.80
2019-02-27T00:36:02.198Z,1.70
2019-02-27T00:41:46.045Z,1.70
2019-02-27T00:44:23.453Z,1.60
2019-02-27T00:47:02.657Z,1.50
2019-02-27T00:49:54.076Z,1.50
2019-02-27T00:52:32.958Z,1.40
2019-02-27T00:55:11.439Z,1.50
2019-02-27T00:57:58.957Z,1.40
2019-02-27T01:00:39.332Z,1.40
2019-02-27T01:03:25.960Z,1.40
2019-02-27T01:06:12.159Z,1.40
2019-02-27T01:08:48.443Z,1.30
2019-02-27T01:11:26.665Z,1.30
2019-02-27T01:14:14.890Z,1.30
2019-02-27T01:16:52.243Z,1.30
2019-02-27T01:19:40.214Z,1.30
2019-02-27T01:22:10.942Z,1.20
2019-02-27T01:24:55.462Z,1.30
2019-02-27T01:27:38.092Z,1.30
2019-02-27T01:30:23.976Z,1.20
2019-02-27T01:33:10.835Z,1.20
2019-02-27T01:35:41.013Z,1.10
2019-02-27T01:38:27.920Z,1.00
2019-02-27T01:41:11.461Z,1.00
2019-02-27T01:43:56.309Z,1.20
2019-02-27T01:46:37.040Z,1.30
2019-02-27T01:49:20.643Z,1.30
2019-02-27T01:52:06.258Z,1.20
2019-02-27T01:54:48.589Z,1.10
2019-02-27T01:57:25.302Z,1.00
2019-02-27T02:00:08.137Z,0.90
2019-02-27T02:02:55.126Z,0.90
2019-02-27T02:05:33.217Z,0.80
2019-02-27T02:08:19.233Z,0.70
2019-02-27T02:11:01.408Z,0.70
2019-02-27T02:13:54.265Z,0.70
2019-02-27T02:17:08.934Z,0.60
2019-02-27T02:20:36.395Z,0.70
2019-02-27T02:23:19.222Z,0.80
2019-02-27T02:26:25.542Z,0.60
2019-02-27T02:29:30.690Z,0.50
2019-02-27T02:32:37.886Z,0.40
2019-02-27T02:35:50.748Z,0.40
2019-02-27T02:39:27.741Z,0.40
2019-02-27T02:42:30.423Z,0.40
2019-02-27T02:45:24.239Z,0.40
2019-02-27T02:48:49.895Z,0.40
2019-02-27T02:51:45.343Z,0.40
2019-02-27T02:54:48.927Z,0.40
2019-02-27T02:58:15.888Z,0.40
2019-02-27T03:01:05.711Z,0.30
2019-02-27T03:03:45.974Z,0.30
2019-02-27T03:08:22.557Z,0.20
2019-02-27T03:10:31.237Z,0.20
2019-02-27T03:13:49.858Z,0.20
2019-02-27T03:17:17.873Z,0.20
2019-02-27T03:20:31.763Z,0.20
2019-02-27T03:24:02.328Z,0.10
2019-02-27T03:27:16.326Z,0.10
2019-02-27T03:33:33.491Z,0.20
2019-02-27T03:36:41.393Z,0.10
2019-02-27T03:40:18.447Z,0.00
2019-02-27T03:42:56.503Z,-0.10
2019-02-27T03:45:44.858Z,-0.10
2019-02-27T03:48:46.830Z,-0.20
2019-02-27T03:52:37.268Z,-0.20
2019-02-27T03:55:14.929Z,-0.20
2019-02-27T03:58:22.461Z,-0.20
2019-02-27T04:01:53.693Z,-0.30
2019-02-27T04:04:39.979Z,-0.20
2019-02-27T04:07:19.796Z,-0.30
2019-02-27T04:10:00.518Z,-0.30
2019-02-27T04:12:43.261Z,-0.30
2019-02-27T04:15:28.198Z,-0.30
2019-02-27T04:18:01.300Z,-0.30
2019-02-27T04:20:52.754Z,-0.30
2019-02-27T04:23:35.499Z,-0.40
2019-02-27T04:26:23.224Z,-0.40
2019-02-27T04:28:55.069Z,-0.50
2019-02-27T04:31:39.462Z,-0.50
2019-02-27T04:34:19.329Z,-0.50
2019-02-27T04:37:05.598Z,-0.50
2019-02-27T04:39:44.591Z,-0.50
2019-02-27T04:42:26.972Z,-0.60
2019-02-27T04:45:09.821Z,-0.60
2019-02-27T04:47:54.101Z,-0.60
2019-02-27T04:50:30.997Z,-0.60
2019-02-27T04:53:14.982Z,-0.70
2019-02-27T04:55:50.506Z,-0.70
2019-02-27T04:58:37.084Z,-0.60
2019-02-27T05:01:24.819Z,-0.70
2019-02-27T05:04:04.019Z,-0.70
2019-02-27T05:06:47.384Z,-0.80
2019-02-27T05:09:31.450Z,-0.80
2019-02-27T05:12:12.369Z,-0.90
2019-02-27T05:14:57.825Z,-0.90
2019-02-27T05:17:32.419Z,-0.90
2019-02-27T05:20:13.847Z,-0.90
2019-02-27T05:23:00.396Z,-0.90
2019-02-27T05:25:38.921Z,-0.90
2019-02-27T05:28:23.266Z,-1.00
2019-02-27T05:31:10.292Z,-0.90
2019-02-27T05:33:47.558Z,-1.00
2019-02-27T05:36:31.630Z,-1.00
2019-02-27T05:39:08.772Z,-1.00
2019-02-27T05:41:50.193Z,-1.10
2019-02-27T05:44:37.932Z,-1.00
2019-02-27T05:47:25.642Z,-1.00
2019-02-27T05:50:01.533Z,-1.00
2019-02-27T05:52:42.181Z,-0.90
2019-02-27T05:55:27.385Z,-1.00
2019-02-27T05:58:06.473Z,-1.00
2019-02-27T06:00:49.103Z,-1.10
2019-02-27T06:03:36.895Z,-1.20
2019-02-27T06:06:11.786Z,-1.20
2019-02-27T06:08:49.703Z,-1.20
2019-02-27T06:11:35.291Z,-1.20
2019-02-27T06:14:15.918Z,-1.20
2019-02-27T06:16:56.612Z,-1.30
2019-02-27T06:19:42.346Z,-1.30
2019-02-27T06:22:30.416Z,-1.30
2019-02-27T06:25:03.145Z,-1.30
2019-02-27T06:27:50.656Z,-1.40
2019-02-27T06:30:31.371Z,-1.40
2019-02-27T06:33:20.765Z,-1.30
2019-02-27T06:35:58.842Z,-1.30
2019-02-27T06:38:47.295Z,-1.40
2019-02-27T06:41:28.562Z,-1.50
2019-02-27T06:44:14.564Z,-1.40
2019-02-27T06:46:51.090Z,-1.40
2019-02-27T06:49:39.435Z,-1.40
2019-02-27T06:52:19.739Z,-1.50
2019-02-27T06:55:04.013Z,-1.50
2019-02-27T06:57:45.376Z,-1.40
2019-02-27T07:00:28.054Z,-1.40
2019-02-27T07:03:10.001Z,-1.40
2019-02-27T07:05:48.845Z,-1.40
2019-02-27T07:08:29.075Z,-1.40
2019-02-27T07:11:11.225Z,-1.30
2019-02-27T07:13:53.380Z,-1.30
2019-02-27T07:16:35.144Z,-1.40
2019-02-27T07:19:19.981Z,-1.30
2019-02-27T07:22:01.205Z,-1.20
2019-02-27T07:24:33.593Z,-1.10
2019-02-27T07:27:07.028Z,-0.90
2019-02-27T07:33:06.648Z,-0.90
2019-02-27T07:35:25.464Z,-0.80
2019-02-27T07:38:21.455Z,-0.80
2019-02-27T07:40:48.089Z,-0.70
2019-02-27T07:43:37.037Z,-0.60
2019-02-27T07:49:37.170Z,-0.40
2019-02-27T07:51:49.624Z,-0.30
2019-02-27T07:54:19.665Z,-0.10
2019-02-27T07:57:09.578Z,0.00
2019-02-27T08:00:14.745Z,0.10
2019-02-27T08:03:14.126Z,0.30
2019-02-27T08:06:09.855Z,0.40
2019-02-27T08:09:19.916Z,0.60
2019-02-27T08:12:14.199Z,0.70
2019-02-27T08:15:13.594Z,0.80
2019-02-27T08:18:09.736Z,1.00
2019-02-27T08:20:30.194Z,1.20
2019-02-27T08:23:20.609Z,1.30
2019-02-27T08:26:18.403Z,1.40
2019-02-27T08:28:44.396Z,1.60
2019-02-27T08:31:35.442Z,1.90
2019-02-27T08:33:52.820Z,2.30
2019-02-27T08:36:29.196Z,2.70
2019-02-27T08:40:17.852Z,3.00
2019-02-27T08:41:53.496Z,3.30
2019-02-27T08:44:21.150Z,4.00
2019-02-27T08:49:35.229Z,4.70
2019-02-27T08:52:08.577Z,5.50
2019-02-27T08:55:22.290Z,6.00
2019-02-27T08:56:09.974Z,4.20
2019-02-27T08:58:32.086Z,5.80
2019-02-27T09:01:34.936Z,5.10
2019-02-27T09:04:35.556Z,5.20
2019-02-27T09:07:37.067Z,5.30
2019-02-27T09:09:51.245Z,5.50
2019-02-27T09:12:32.678Z,6.00
2019-02-27T09:15:12.159Z,6.40
2019-02-27T09:17:59.208Z,6.30
2019-02-27T09:20:39.676Z,6.50
2019-02-27T09:23:09.671Z,6.80
2019-02-27T09:29:25.208Z,7.50
2019-02-27T09:31:37.695Z,7.60
2019-02-27T09:34:06.919Z,7.90
2019-02-27T09:37:00.542Z,8.60
2019-02-27T09:39:35.501Z,8.50
2019-02-27T09:42:31.894Z,8.10
2019-02-27T09:44:58.955Z,8.30
2019-02-27T09:51:05.774Z,7.80
2019-02-27T09:53:36.768Z,7.80
2019-02-27T09:56:26.095Z,7.80
2019-02-27T09:58:55.263Z,8.10
2019-02-27T10:01:34.119Z,8.90
2019-02-27T10:04:10.591Z,9.60
2019-02-27T10:06:59.510Z,10.30
2019-02-27T10:09:29.753Z,9.90
2019-02-27T10:12:20.145Z,9.60
2019-02-27T10:15:02.388Z,10.30
2019-02-27T10:17:29.596Z,10.60
2019-02-27T10:20:43.123Z,10.40
2019-02-27T10:23:14.890Z,10.10
2019-02-27T10:27:02.453Z,10.80
2019-02-27T10:28:25.995Z,10.50
2019-02-27T10:32:39.672Z,10.10
2019-02-27T10:34:10.494Z,9.90
2019-02-27T10:36:39.214Z,9.90
2019-02-27T10:39:22.165Z,9.90
2019-02-27T10:41:54.053Z,10.70
2019-02-27T10:44:25.475Z,10.80
2019-02-27T10:47:12.917Z,10.80
2019-02-27T10:49:42.771Z,10.50
2019-02-27T10:52:33.236Z,10.70
2019-02-27T10:55:27.076Z,11.50
2019-02-27T10:58:03.832Z,12.10
2019-02-27T11:00:33.912Z,11.70
2019-02-27T11:03:05.530Z,12.00
2019-02-27T11:05:58.469Z,11.80
2019-02-27T11:09:04.605Z,11.90
2019-02-27T11:11:16.388Z,11.80
2019-02-27T11:14:04.632Z,11.70
2019-02-27T11:16:37.752Z,11.70
2019-02-27T11:19:30.051Z,11.90
2019-02-27T11:22:34.423Z,12.20
2019-02-27T11:25:25.083Z,12.30
2019-02-27T11:28:03.171Z,12.40
2019-02-27T11:32:10.791Z,12.50
2019-02-27T11:33:35.850Z,12.50
2019-02-27T11:36:06.424Z,12.50
2019-02-27T11:39:05.830Z,12.90
2019-02-27T11:41:36.510Z,13.30
2019-02-27T11:44:06.476Z,13.60
2019-02-27T11:46:38.982Z,14.60
2019-02-27T11:49:39.402Z,15.50
2019-02-27T11:52:29.822Z,16.30
2019-02-27T11:55:30.347Z,16.40
2019-02-27T11:58:05.602Z,15.90
2019-02-27T12:00:38.394Z,15.50
2019-02-27T12:03:08.656Z,16.10
2019-02-27T12:06:05.245Z,15.50
2019-02-27T12:08:26.861Z,15.70
2019-02-27T12:10:56.980Z,15.20
2019-02-27T12:13:54.799Z,15.20
2019-02-27T12:16:18.507Z,15.00
2019-02-27T12:18:50.083Z,15.10
2019-02-27T12:21:48.706Z,15.40
2019-02-27T12:24:27.802Z,15.40
2019-02-27T12:26:59.147Z,15.40
2019-02-27T12:29:39.649Z,15.30
2019-02-27T12:32:37.179Z,15.50
2019-02-27T12:35:08.312Z,15.60
2019-02-27T12:37:38.501Z,15.90
2019-02-27T12:40:44.658Z,15.60
2019-02-27T12:43:26.357Z,15.50
2019-02-27T12:46:00.595Z,15.60
2019-02-27T12:48:31.944Z,15.70
2019-02-27T12:51:31.415Z,15.50
2019-02-27T12:55:29.699Z,15.70
2019-02-27T12:56:53.979Z,15.80
2019-02-27T12:59:21.124Z,15.80
2019-02-27T13:08:11.223Z,15.60
2019-02-27T13:11:00.636Z,15.50
2019-02-27T13:13:31.894Z,15.60
2019-02-27T13:20:12.505Z,15.50
2019-02-27T13:21:37.502Z,15.60
2019-02-27T13:24:32.144Z,15.80
2019-02-27T13:26:55.937Z,15.80
2019-02-27T13:29:48.646Z,15.80
2019-02-27T13:32:21.367Z,15.90
2019-02-27T13:35:01.331Z,16.00
2019-02-27T13:37:33.175Z,15.90
2019-02-27T13:40:10.247Z,15.90
2019-02-27T13:43:19.907Z,16.00
2019-02-27T13:45:28.626Z,16.10
2019-02-27T13:47:58.994Z,16.10
2019-02-27T13:50:40.824Z,16.10
2019-02-27T13:53:12.508Z,16.20
2019-02-27T13:55:48.316Z,16.00
2019-02-27T13:58:19.785Z,16.20
2019-02-27T14:02:11.531Z,16.40
2019-02-27T14:03:51.749Z,16.40
2019-02-27T14:06:43.120Z,16.30
2019-02-27T14:09:19.053Z,16.30
2019-02-27T14:11:58.855Z,16.40
2019-02-27T14:14:36.348Z,16.40
2019-02-27T14:17:07.669Z,16.40
2019-02-27T14:19:50.439Z,16.50
2019-02-27T14:22:26.460Z,16.60
2019-02-27T14:25:07.104Z,16.70
2019-02-27T14:27:41.305Z,16.50
2019-02-27T14:30:14.811Z,16.70
2019-02-27T14:32:47.346Z,16.70
2019-02-27T14:35:52.774Z,16.80
2019-02-27T14:41:17.422Z,16.90
2019-02-27T14:44:25.338Z,17.00
2019-02-27T14:46:28.989Z,17.00
2019-02-27T14:49:04.554Z,17.10
2019-02-27T14:51:41.161Z,17.20
2019-02-27T14:54:17.475Z,17.20
2019-02-27T14:56:59.395Z,17.20
2019-02-27T15:00:16.031Z,17.20
2019-02-27T15:02:07.770Z,17.20
2019-02-27T15:04:47.273Z,17.30
2019-02-27T15:07:25.709Z,17.10
2019-02-27T15:09:58.755Z,17.20
2019-02-27T15:12:33.110Z,17.10
2019-02-27T15:15:03.464Z,17.00
2019-02-27T15:17:51.806Z,17.30
2019-02-27T15:20:25.953Z,17.30
2019-02-27T15:22:59.045Z,17.30
2019-02-27T15:25:42.190Z,17.20
2019-02-27T15:28:19.834Z,17.20
2019-02-27T15:33:54.449Z,17.00
2019-02-27T15:36:55.469Z,17.10
2019-02-27T15:39:21.129Z,16.90
2019-02-27T15:42:19.482Z,16.90
2019-02-27T15:45:01.273Z,17.00
2019-02-27T15:47:34.874Z,16.90
2019-02-27T15:50:08.606Z,16.90
2019-02-27T15:53:19.539Z,17.00
2019-02-27T15:55:32.999Z,16.90
2019-02-27T15:58:01.023Z,16.70
2019-02-27T16:00:33.838Z,16.70
2019-02-27T16:03:13.079Z,16.70
2019-02-27T16:05:48.243Z,16.60
2019-02-27T16:08:23.426Z,16.50
2019-02-27T16:11:20.035Z,16.50
2019-02-27T16:13:50.105Z,16.70
2019-02-27T16:16:57.565Z,16.70
2019-02-27T16:19:57.969Z,16.40
2019-02-27T16:22:07.471Z,16.40
2019-02-27T16:24:44.973Z,16.40
2019-02-27T16:27:19.598Z,16.50
2019-02-27T16:29:56.731Z,16.20
2019-02-27T16:32:47.911Z,16.10
2019-02-27T16:35:47.870Z,15.90
2019-02-27T16:38:18.001Z,15.90
2019-02-27T16:40:52.068Z,15.90
2019-02-27T16:44:03.634Z,15.80
2019-02-27T16:46:18.576Z,15.90
2019-02-27T16:48:44.419Z,15.70
2019-02-27T16:51:17.384Z,15.40
2019-02-27T16:54:06.464Z,15.50
2019-02-27T16:56:36.840Z,15.40
2019-02-27T16:59:07.952Z,15.10
2019-02-27T17:01:49.215Z,15.10
2019-02-27T17:04:27.076Z,15.10
2019-02-27T17:09:40.993Z,14.80
2019-02-27T17:12:19.489Z,14.50
2019-02-27T17:15:10.802Z,14.60
2019-02-27T17:17:50.529Z,14.20
2019-02-27T17:20:20.215Z,13.90
2019-02-27T17:25:29.914Z,13.80
2019-02-27T17:28:08.514Z,13.70
2019-02-27T17:30:46.436Z,13.40
2019-02-27T17:33:23.215Z,13.20
2019-02-27T17:36:03.879Z,12.90
2019-02-27T17:38:41.995Z,12.80
2019-02-27T17:41:52.243Z,12.60
2019-02-27T17:46:44.431Z,12.30
2019-02-27T17:49:22.212Z,12.10
2019-02-27T17:51:52.924Z,11.90
2019-02-27T17:54:41.784Z,11.70
2019-02-27T17:57:17.820Z,11.50
2019-02-27T17:59:58.344Z,11.30
2019-02-27T18:02:53.275Z,11.20
2019-02-27T18:05:33.293Z,11.00
2019-02-27T18:11:19.414Z,10.70
2019-02-27T18:14:15.478Z,10.60
2019-02-27T18:17:11.778Z,10.40
2019-02-27T18:19:55.533Z,10.40
2019-02-27T18:23:02.273Z,10.20
2019-02-27T18:31:13.505Z,9.90
2019-02-27T18:33:35.379Z,9.80
2019-02-27T18:36:28.812Z,9.70
2019-02-27T18:39:25.753Z,9.60
2019-02-27T18:44:52.997Z,9.40
2019-02-27T18:50:16.487Z,9.20
2019-02-27T18:53:16.307Z,9.10
2019-02-27T18:56:17.773Z,9.00
2019-02-27T18:58:38.565Z,9.00
2019-02-27T19:01:36.447Z,8.90
2019-02-27T19:04:03.856Z,8.80
2019-02-27T19:06:54.796Z,8.70
2019-02-27T19:09:46.950Z,8.60
2019-02-27T19:14:41.209Z,8.50
2019-02-27T19:17:11.648Z,8.40
2019-02-27T19:20:02.965Z,8.30
2019-02-27T19:22:52.886Z,8.30
2019-02-27T19:25:47.355Z,8.20
2019-02-27T19:28:49.176Z,8.20
2019-02-27T19:30:54.988Z,8.10
2019-02-27T19:33:25.175Z,8.00
2019-02-27T19:36:20.779Z,8.00
2019-02-27T19:38:29.997Z,7.90
2019-02-27T19:41:01.257Z,7.90
2019-02-27T19:43:55.959Z,7.80
2019-02-27T19:46:51.479Z,7.70
2019-02-27T19:49:47.283Z,7.60
2019-02-27T19:52:03.314Z,7.60
2019-02-27T19:54:40.605Z,7.60
2019-02-27T19:57:30.764Z,7.60
2019-02-27T20:00:03.571Z,7.50
2019-02-27T20:02:59.308Z,7.40
2019-02-27T20:05:46.803Z,7.30
2019-02-27T20:08:58.901Z,7.30
2019-02-27T20:13:46.065Z,7.20
2019-02-27T20:16:20.100Z,7.10
2019-02-27T20:18:54.829Z,7.10
2019-02-27T20:21:22.217Z,7.00
2019-02-27T20:23:52.086Z,7.00
2019-02-27T20:26:32.727Z,6.90
2019-02-27T20:30:56.297Z,7.00
2019-02-27T20:31:48.226Z,6.90
2019-02-27T20:34:28.002Z,6.80
2019-02-27T20:36:59.482Z,6.70
2019-02-27T20:39:47.121Z,6.70
2019-02-27T20:43:07.762Z,6.70
2019-02-27T20:44:55.254Z,6.60
2019-02-27T20:47:25.464Z,6.50
2019-02-27T20:50:31.889Z,6.50
2019-02-27T20:53:12.639Z,6.40
2019-02-27T20:56:03.752Z,6.30
2019-02-27T20:58:59.685Z,6.30
2019-02-27T21:01:52.148Z,6.30
2019-02-27T21:04:54.764Z,6.20
2019-02-27T21:07:38.169Z,6.10
2019-02-27T21:10:34.159Z,5.90
2019-02-27T21:13:27.454Z,5.90
2019-02-27T21:16:04.377Z,5.90
2019-02-27T21:19:02.574Z,5.80
2019-02-27T21:21:25.930Z,5.80
2019-02-27T21:24:09.349Z,5.70
2019-02-27T21:29:43.287Z,5.60
2019-02-27T21:32:05.989Z,5.70
2019-02-27T21:34:59.095Z,5.50
2019-02-27T21:37:51.156Z,5.50
2019-02-27T21:40:42.687Z,5.40
2019-02-27T21:43:36.627Z,5.40
2019-02-27T21:46:36.412Z,5.30
2019-02-27T21:48:54.634Z,5.20
2019-02-27T21:51:25.170Z,5.20
2019-02-27T21:54:07.526Z,5.20
2019-02-27T21:56:37.390Z,5.30
2019-02-27T21:59:25.577Z,5.20
2019-02-27T22:02:10.253Z,5.20
2019-02-27T22:05:03.160Z,5.10
2019-02-27T22:07:54.459Z,5.00
2019-02-27T22:10:53.288Z,4.90
2019-02-27T22:13:33.811Z,5.00
2019-02-27T22:16:31.433Z,4.90
2019-02-27T22:19:59.779Z,4.80
2019-02-27T22:22:45.991Z,4.80
2019-02-27T22:25:07.477Z,4.70
2019-02-27T22:27:58.479Z,4.70
2019-02-27T22:33:10.654Z,4.60
2019-02-27T22:36:12.749Z,4.60
2019-02-27T22:38:25.774Z,4.50
2019-02-27T22:41:05.648Z,4.50
2019-02-27T22:43:35.166Z,4.40
2019-02-27T22:46:07.304Z,4.60
2019-02-27T22:49:00.016Z,4.40
2019-02-27T22:51:53.617Z,4.40
2019-02-27T22:54:51.314Z,4.30
2019-02-27T22:57:34.005Z,4.20
2019-02-27T23:00:12.629Z,4.20
2019-02-27T23:02:30.025Z,4.20
2019-02-27T23:05:12.983Z,4.20
2019-02-27T23:07:41.838Z,4.10
2019-02-27T23:10:30.996Z,4.00
2019-02-27T23:13:22.011Z,4.00
2019-02-27T23:16:14.666Z,3.90
2019-02-27T23:19:05.287Z,3.90
2019-02-27T23:22:03.032Z,4.00
2019-02-27T23:24:48.706Z,4.00
2019-02-27T23:30:20.425Z,4.00
2019-02-27T23:33:29.030Z,3.80
2019-02-27T23:35:35.183Z,3.70
2019-02-27T23:38:29.729Z,3.70
2019-02-27T23:41:22.914Z,3.60
2019-02-27T23:44:16.020Z,3.60
2019-02-27T23:46:57.444Z,3.50
2019-02-27T23:49:39.634Z,3.60
2019-02-27T23:52:11.684Z,3.60
2019-02-27T23:55:02.454Z,3.60
